createdAt,value
2019-05-30T00:01:57.000Z,100863
2019-05-30T00:03:57.000Z,100858
2019-05-30T00:05:57.000Z,100855
2019-05-30T00:07:57.000Z,100857
2019-05-30T00:09:57.000Z,100848
2019-05-30T00:11:57.000Z,100857
2019-05-30T00:13:57.000Z,100861
2019-05-30T00:15:57.000Z,100857
2019-05-30T00:17:57.000Z,100856
2019-05-30T00:19:56.000Z,100856
2019-05-30T00:20:56.000Z,100862
2019-05-30T00:21:56.000Z,100857
2019-05-30T00:23:41.000Z,100860
2019-05-30T00:24:57.000Z,100851
2019-05-30T00:26:57.000Z,100849
2019-05-30T00:28:57.000Z,100854
2019-05-30T00:30:57.000Z,100846
2019-05-30T00:32:56.000Z,100852
2019-05-30T00:34:11.000Z,100852
2019-05-30T00:35:56.000Z,100850
2019-05-30T00:36:56.000Z,100853
2019-05-30T00:37:57.000Z,100849
2019-05-30T00:38:57.000Z,100850
2019-05-30T00:39:57.000Z,100852
2019-05-30T00:41:57.000Z,100854
2019-05-30T00:43:56.000Z,100849
2019-05-30T00:44:56.000Z,100842
2019-05-30T00:46:56.000Z,100847
2019-05-30T00:47:56.000Z,100852
2019-05-30T00:49:56.000Z,100848
2019-05-30T00:51:57.000Z,100849
2019-05-30T00:53:56.000Z,100852
2019-05-30T00:54:56.000Z,100854
2019-05-30T00:56:57.000Z,100854
2019-05-30T00:58:56.000Z,100852
2019-05-30T00:59:57.000Z,100856
2019-05-30T01:01:57.000Z,100853
2019-05-30T01:03:57.000Z,100849
2019-05-30T01:04:57.000Z,100850
2019-05-30T01:06:57.000Z,100849
2019-05-30T01:08:57.000Z,100847
2019-05-30T01:10:57.000Z,100839
2019-05-30T01:12:57.000Z,100846
2019-05-30T01:14:57.000Z,100851
2019-05-30T01:16:42.000Z,100846
2019-05-30T01:17:57.000Z,100847
2019-05-30T01:19:56.000Z,100844
2019-05-30T01:21:12.000Z,100846
2019-05-30T01:22:41.000Z,100845
2019-05-30T01:24:12.000Z,100843
2019-05-30T01:26:12.000Z,100842
2019-05-30T01:27:12.000Z,100844
2019-05-30T01:28:12.000Z,100838
2019-05-30T01:29:12.000Z,100844
2019-05-30T01:30:12.000Z,100841
2019-05-30T01:32:12.000Z,100844
2019-05-30T01:33:56.000Z,100837
2019-05-30T01:35:12.000Z,100847
2019-05-30T01:37:12.000Z,100847
2019-05-30T01:38:56.000Z,100848
2019-05-30T01:39:57.000Z,100848
2019-05-30T01:40:57.000Z,100847
2019-05-30T01:42:57.000Z,100852
2019-05-30T01:44:57.000Z,100853
2019-05-30T01:46:57.000Z,100857
2019-05-30T01:48:56.000Z,100849
2019-05-30T01:49:57.000Z,100853
2019-05-30T01:50:57.000Z,100848
2019-05-30T01:51:57.000Z,100847
2019-05-30T01:52:57.000Z,100848
2019-05-30T01:54:57.000Z,100845
2019-05-30T01:56:56.000Z,100847
2019-05-30T01:57:57.000Z,100845
2019-05-30T01:59:57.000Z,100842
2019-05-30T02:01:57.000Z,100845
2019-05-30T02:03:57.000Z,100840
2019-05-30T02:05:57.000Z,100842
2019-05-30T02:07:57.000Z,100847
2019-05-30T02:10:12.000Z,100844
2019-05-30T02:12:12.000Z,100840
2019-05-30T02:14:12.000Z,100841
2019-05-30T02:16:12.000Z,100835
2019-05-30T02:17:12.000Z,100844
2019-05-30T02:18:12.000Z,100839
2019-05-30T02:20:12.000Z,100835
2019-05-30T02:22:12.000Z,100832
2019-05-30T02:24:12.000Z,100833
2019-05-30T02:26:12.000Z,100831
2019-05-30T02:28:12.000Z,100830
2019-05-30T02:29:12.000Z,100834
2019-05-30T02:30:42.000Z,100826
2019-05-30T02:32:12.000Z,100832
2019-05-30T02:34:12.000Z,100825
2019-05-30T02:36:12.000Z,100837
2019-05-30T02:38:12.000Z,100836
2019-05-30T02:39:57.000Z,100838
2019-05-30T02:42:12.000Z,100842
2019-05-30T02:43:12.000Z,100851
2019-05-30T02:45:12.000Z,100852
2019-05-30T02:46:12.000Z,100848
2019-05-30T02:48:12.000Z,100852
2019-05-30T02:50:12.000Z,100853
2019-05-30T02:52:12.000Z,100856
2019-05-30T02:54:12.000Z,100853
2019-05-30T02:56:12.000Z,100856
2019-05-30T02:58:12.000Z,100854
2019-05-30T03:00:12.000Z,100858
2019-05-30T03:01:42.000Z,100851
2019-05-30T03:03:12.000Z,100856
2019-05-30T03:04:57.000Z,100853
2019-05-30T03:07:12.000Z,100860
2019-05-30T03:09:11.000Z,100857
2019-05-30T03:11:11.000Z,100855
2019-05-30T03:13:11.000Z,100860
2019-05-30T03:15:11.000Z,100863
2019-05-30T03:16:11.000Z,100859
2019-05-30T03:18:11.000Z,100860
2019-05-30T03:20:11.000Z,100859
2019-05-30T03:22:11.000Z,100854
2019-05-30T03:24:11.000Z,100851
2019-05-30T03:25:11.000Z,100856
2019-05-30T03:27:11.000Z,100857
2019-05-30T03:29:11.000Z,100854
2019-05-30T03:30:56.000Z,100859
2019-05-30T03:32:41.000Z,100854
2019-05-30T03:33:42.000Z,100851
2019-05-30T03:35:41.000Z,100852
2019-05-30T03:37:11.000Z,100857
2019-05-30T03:39:11.000Z,100859
2019-05-30T03:41:11.000Z,100862
2019-05-30T03:42:11.000Z,100862
2019-05-30T03:44:11.000Z,100858
2019-05-30T03:46:11.000Z,100860
2019-05-30T03:47:56.000Z,100860
2019-05-30T03:49:11.000Z,100857
2019-05-30T03:51:11.000Z,100861
2019-05-30T03:53:11.000Z,100863
2019-05-30T03:55:11.000Z,100866
2019-05-30T03:57:11.000Z,100862
2019-05-30T03:59:11.000Z,100862
2019-05-30T04:01:11.000Z,100866
2019-05-30T04:02:58.000Z,100866
2019-05-30T04:05:11.000Z,100867
2019-05-30T04:06:11.000Z,100871
2019-05-30T04:08:11.000Z,100866
2019-05-30T04:10:11.000Z,100868
2019-05-30T04:12:11.000Z,100870
2019-05-30T04:14:12.000Z,100871
2019-05-30T04:16:12.000Z,100872
2019-05-30T04:18:12.000Z,100873
2019-05-30T04:20:12.000Z,100870
2019-05-30T04:21:57.000Z,100883
2019-05-30T04:23:12.000Z,100881
2019-05-30T04:25:12.000Z,100882
2019-05-30T04:27:12.000Z,100881
2019-05-30T04:29:12.000Z,100881
2019-05-30T04:31:12.000Z,100884
2019-05-30T04:32:57.000Z,100886
2019-05-30T04:34:57.000Z,100890
2019-05-30T04:36:12.000Z,100884
2019-05-30T04:38:12.000Z,100880
2019-05-30T04:40:12.000Z,100885
2019-05-30T04:42:12.000Z,100872
2019-05-30T04:44:12.000Z,100879
2019-05-30T04:46:12.000Z,100872
2019-05-30T04:48:12.000Z,100876
2019-05-30T04:49:57.000Z,100870
2019-05-30T04:52:12.000Z,100876
2019-05-30T04:54:12.000Z,100877
2019-05-30T04:56:12.000Z,100876
2019-05-30T04:58:12.000Z,100874
2019-05-30T05:00:12.000Z,100879
2019-05-30T05:01:12.000Z,100882
2019-05-30T05:03:12.000Z,100882
2019-05-30T05:05:12.000Z,100884
2019-05-30T05:07:12.000Z,100883
2019-05-30T05:08:12.000Z,100884
2019-05-30T05:10:12.000Z,100878
2019-05-30T05:12:12.000Z,100873
2019-05-30T05:14:12.000Z,100883
2019-05-30T05:16:12.000Z,100879
2019-05-30T05:18:12.000Z,100879
2019-05-30T05:20:12.000Z,100884
2019-05-30T05:22:12.000Z,100884
2019-05-30T05:23:56.000Z,100883
2019-05-30T05:25:12.000Z,100887
2019-05-30T05:27:12.000Z,100887
2019-05-30T05:29:12.000Z,100887
2019-05-30T05:31:12.000Z,100882
2019-05-30T05:33:12.000Z,100883
2019-05-30T05:35:12.000Z,100884
2019-05-30T05:36:12.000Z,100886
2019-05-30T05:38:12.000Z,100886
2019-05-30T05:39:56.000Z,100884
2019-05-30T05:41:12.000Z,100891
2019-05-30T05:43:12.000Z,100889
2019-05-30T05:44:56.000Z,100876
2019-05-30T05:46:12.000Z,100871
2019-05-30T05:47:12.000Z,100879
2019-05-30T05:48:12.000Z,100877
2019-05-30T05:50:12.000Z,100877
2019-05-30T05:52:12.000Z,100879
2019-05-30T05:54:12.000Z,100878
2019-05-30T05:56:12.000Z,100878
2019-05-30T05:57:41.000Z,100880
2019-05-30T05:59:12.000Z,100882
2019-05-30T06:00:12.000Z,100882
2019-05-30T06:02:12.000Z,100881
2019-05-30T06:03:57.000Z,100884
2019-05-30T06:05:42.000Z,100889
2019-05-30T06:07:12.000Z,100899
2019-05-30T06:08:12.000Z,100901
2019-05-30T06:09:12.000Z,100897
2019-05-30T06:11:12.000Z,100903
2019-05-30T06:13:12.000Z,100900
2019-05-30T06:14:12.000Z,100903
2019-05-30T06:16:12.000Z,100899
2019-05-30T06:18:12.000Z,100895
2019-05-30T06:19:12.000Z,100898
2019-05-30T06:21:12.000Z,100896
2019-05-30T06:23:12.000Z,100899
2019-05-30T06:24:57.000Z,100896
2019-05-30T06:26:12.000Z,100900
2019-05-30T06:28:12.000Z,100898
2019-05-30T06:29:12.000Z,100894
2019-05-30T06:30:12.000Z,100892
2019-05-30T06:32:12.000Z,100896
2019-05-30T06:34:12.000Z,100901
2019-05-30T06:35:57.000Z,100905
2019-05-30T06:37:12.000Z,100903
2019-05-30T06:38:12.000Z,100907
2019-05-30T06:39:57.000Z,100903
2019-05-30T06:41:12.000Z,100907
2019-05-30T06:43:12.000Z,100903
2019-05-30T06:45:12.000Z,100910
2019-05-30T06:46:12.000Z,100902
2019-05-30T06:48:12.000Z,100904
2019-05-30T06:50:12.000Z,100904
2019-05-30T06:52:12.000Z,100906
2019-05-30T06:53:57.000Z,100910
2019-05-30T06:55:12.000Z,100908
2019-05-30T06:56:42.000Z,100922
2019-05-30T06:58:12.000Z,100914
2019-05-30T07:00:12.000Z,100915
2019-05-30T07:02:12.000Z,100902
2019-05-30T07:03:42.000Z,100909
2019-05-30T07:04:42.000Z,100903
2019-05-30T07:47:48.000Z,100960
2019-05-30T07:49:34.000Z,100957
2019-05-30T07:51:34.000Z,100965
2019-05-30T07:52:34.000Z,100963
2019-05-30T07:53:34.000Z,100966
2019-05-30T07:55:19.000Z,100962
2019-05-30T07:56:34.000Z,100971
2019-05-30T07:58:34.000Z,100958
2019-05-30T08:00:34.000Z,100961
2019-05-30T08:02:34.000Z,100964
2019-05-30T08:04:34.000Z,100971
2019-05-30T08:06:34.000Z,100965
2019-05-30T08:08:34.000Z,100967
2019-05-30T08:10:34.000Z,100974
2019-05-30T08:12:34.000Z,100974
2019-05-30T08:14:34.000Z,100961
2019-05-30T08:16:34.000Z,100957
2019-05-30T08:18:34.000Z,100960
2019-05-30T08:20:34.000Z,100963
2019-05-30T08:22:34.000Z,100962
2019-05-30T08:24:34.000Z,100963
2019-05-30T08:26:34.000Z,100969
2019-05-30T08:28:34.000Z,100973
2019-05-30T08:30:34.000Z,100971
2019-05-30T08:31:34.000Z,100970
2019-05-30T08:33:19.000Z,100970
2019-05-30T08:35:34.000Z,100965
2019-05-30T08:37:34.000Z,100963
2019-05-30T08:38:34.000Z,100968
2019-05-30T08:40:34.000Z,100967
2019-05-30T08:42:34.000Z,100967
2019-05-30T08:44:34.000Z,100964
2019-05-30T08:46:34.000Z,100964
2019-05-30T08:48:34.000Z,100959
2019-05-30T08:50:34.000Z,100960
2019-05-30T08:52:34.000Z,100958
2019-05-30T08:54:34.000Z,100947
2019-05-30T08:55:34.000Z,100946
2019-05-30T08:56:34.000Z,100947
2019-05-30T08:57:34.000Z,100947
2019-05-30T08:59:34.000Z,100946
2019-05-30T09:01:34.000Z,100944
2019-05-30T09:03:34.000Z,100938
2019-05-30T09:05:04.000Z,100941
2019-05-30T09:06:34.000Z,100940
2019-05-30T09:08:34.000Z,100946
2019-05-30T09:10:34.000Z,100935
2019-05-30T09:12:34.000Z,100937
2019-05-30T09:14:34.000Z,100939
2019-05-30T09:16:34.000Z,100930
2019-05-30T09:17:34.000Z,100927
2019-05-30T09:19:34.000Z,100934
2019-05-30T09:21:34.000Z,100933
2019-05-30T09:22:34.000Z,100937
2019-05-30T09:24:34.000Z,100933
2019-05-30T09:26:34.000Z,100939
2019-05-30T09:27:34.000Z,100933
2019-05-30T09:29:34.000Z,100938
2019-05-30T09:31:19.000Z,100942
2019-05-30T09:32:34.000Z,100936
2019-05-30T09:34:34.000Z,100942
2019-05-30T09:36:04.000Z,100940
2019-05-30T09:37:34.000Z,100939
2019-05-30T09:38:34.000Z,100941
2019-05-30T09:40:34.000Z,100940
2019-05-30T09:42:34.000Z,100947
2019-05-30T09:43:34.000Z,100947
2019-05-30T09:45:34.000Z,100952
2019-05-30T09:47:34.000Z,100971
2019-05-30T09:49:34.000Z,100974
2019-05-30T09:51:34.000Z,100974
2019-05-30T09:52:34.000Z,100975
2019-05-30T09:53:34.000Z,100973
2019-05-30T09:55:19.000Z,100979
2019-05-30T09:57:34.000Z,100977
2019-05-30T09:59:19.000Z,100977
2019-05-30T10:00:34.000Z,100977
2019-05-30T10:02:34.000Z,100978
2019-05-30T10:04:19.000Z,100970
2019-05-30T10:05:19.000Z,100970
2019-05-30T10:07:19.000Z,100974
2019-05-30T10:08:34.000Z,100972
2019-05-30T10:10:34.000Z,100971
2019-05-30T10:12:34.000Z,100975
2019-05-30T10:14:34.000Z,100974
2019-05-30T10:15:34.000Z,100965
2019-05-30T10:17:34.000Z,100964
2019-05-30T10:19:34.000Z,100973
2019-05-30T10:21:03.000Z,100972
2019-05-30T10:22:34.000Z,100968
2019-05-30T10:24:34.000Z,100967
2019-05-30T10:25:34.000Z,100961
2019-05-30T10:26:34.000Z,100963
2019-05-30T10:28:34.000Z,100953
2019-05-30T10:29:34.000Z,100960
2019-05-30T10:31:34.000Z,100963
2019-05-30T10:33:19.000Z,100966
2019-05-30T10:34:34.000Z,100976
2019-05-30T10:36:19.000Z,100981
2019-05-30T10:38:19.000Z,100986
2019-05-30T10:39:34.000Z,100986
2019-05-30T10:40:34.000Z,100987
2019-05-30T10:42:19.000Z,100988
2019-05-30T10:44:34.000Z,100992
2019-05-30T10:45:34.000Z,100995
2019-05-30T10:47:34.000Z,100993
2019-05-30T10:49:19.000Z,100988
2019-05-30T10:51:34.000Z,100981
2019-05-30T10:53:34.000Z,100984
2019-05-30T10:55:34.000Z,100990
2019-05-30T10:57:34.000Z,100994
2019-05-30T10:58:34.000Z,100992
2019-05-30T10:59:34.000Z,100994
2019-05-30T11:01:19.000Z,100996
2019-05-30T11:02:19.000Z,100996
2019-05-30T11:03:34.000Z,101004
2019-05-30T11:04:34.000Z,100999
2019-05-30T11:06:34.000Z,100996
2019-05-30T11:08:05.000Z,100996
2019-05-30T11:09:34.000Z,101004
2019-05-30T11:10:34.000Z,101009
2019-05-30T11:12:34.000Z,101008
2019-05-30T11:14:34.000Z,101014
2019-05-30T11:15:34.000Z,101016
2019-05-30T11:17:34.000Z,101013
2019-05-30T11:19:04.000Z,101015
2019-05-30T11:21:34.000Z,101005
2019-05-30T11:22:34.000Z,101006
2019-05-30T11:24:34.000Z,101002
2019-05-30T11:26:34.000Z,101009
2019-05-30T11:27:34.000Z,101003
2019-05-30T11:29:34.000Z,101011
2019-05-30T11:31:04.000Z,101008
2019-05-30T11:32:34.000Z,101017
2019-05-30T11:34:34.000Z,101012
2019-05-30T11:36:34.000Z,101011
2019-05-30T11:38:34.000Z,101014
2019-05-30T11:39:34.000Z,101015
2019-05-30T11:40:34.000Z,101010
2019-05-30T11:42:04.000Z,101011
2019-05-30T11:43:34.000Z,101009
2019-05-30T11:45:34.000Z,101018
2019-05-30T11:47:34.000Z,101012
2019-05-30T11:48:34.000Z,101017
2019-05-30T11:50:34.000Z,101014
2019-05-30T11:52:34.000Z,101015
2019-05-30T11:54:19.000Z,101015
2019-05-30T11:55:34.000Z,101013
2019-05-30T11:57:34.000Z,101016
2019-05-30T11:59:34.000Z,101016
2019-05-30T12:01:34.000Z,101019
2019-05-30T12:03:34.000Z,101019
2019-05-30T12:05:19.000Z,101022
2019-05-30T12:06:34.000Z,101023
2019-05-30T12:08:34.000Z,101020
2019-05-30T12:10:34.000Z,101018
2019-05-30T12:12:34.000Z,101019
2019-05-30T12:14:19.000Z,101019
2019-05-30T12:16:34.000Z,101024
2019-05-30T12:18:34.000Z,101021
2019-05-30T12:20:04.000Z,101021
2019-05-30T12:21:34.000Z,101019
2019-05-30T12:23:34.000Z,101024
2019-05-30T12:24:34.000Z,101024
2019-05-30T12:26:34.000Z,101021
2019-05-30T12:28:04.000Z,101026
2019-05-30T12:29:34.000Z,101015
2019-05-30T12:30:34.000Z,101022
2019-05-30T12:32:34.000Z,101024
2019-05-30T12:33:34.000Z,101016
2019-05-30T12:35:34.000Z,101022
2019-05-30T12:36:34.000Z,101023
2019-05-30T12:38:04.000Z,101018
2019-05-30T12:39:34.000Z,101021
2019-05-30T12:41:34.000Z,101019
2019-05-30T12:43:04.000Z,101021
2019-05-30T12:44:34.000Z,101022
2019-05-30T12:46:34.000Z,101029
2019-05-30T12:47:35.000Z,101029
2019-05-30T12:49:35.000Z,101032
2019-05-30T12:50:35.000Z,101028
2019-05-30T12:52:21.000Z,101031
2019-05-30T12:54:34.000Z,101036
2019-05-30T12:55:35.000Z,101033
2019-05-30T12:57:35.000Z,101031
2019-05-30T12:58:35.000Z,101037
2019-05-30T13:00:05.000Z,101037
2019-05-30T13:01:34.000Z,101038
2019-05-30T13:03:35.000Z,101037
2019-05-30T13:04:35.000Z,101040
2019-05-30T13:06:19.000Z,101042
2019-05-30T13:07:35.000Z,101037
2019-05-30T13:09:34.000Z,101042
2019-05-30T13:10:35.000Z,101045
2019-05-30T13:12:35.000Z,101044
2019-05-30T13:14:34.000Z,101041
2019-05-30T13:16:08.000Z,101041
2019-05-30T13:18:35.000Z,101048
2019-05-30T13:20:34.000Z,101043
2019-05-30T13:22:34.000Z,101045
2019-05-30T13:23:35.000Z,101044
2019-05-30T13:25:20.000Z,101048
2019-05-30T13:27:20.000Z,101044
2019-05-30T13:29:21.000Z,101040
2019-05-30T13:31:34.000Z,101041
2019-05-30T13:32:35.000Z,101043
2019-05-30T13:34:35.000Z,101042
2019-05-30T13:36:20.000Z,101042
2019-05-30T13:38:20.000Z,101047
2019-05-30T13:40:25.000Z,101043
2019-05-30T13:42:04.000Z,101042
2019-05-30T13:43:21.000Z,101041
2019-05-30T13:45:21.000Z,101046
2019-05-30T13:47:34.000Z,101045
2019-05-30T13:48:34.000Z,101045
2019-05-30T13:50:04.000Z,101043
2019-05-30T13:51:34.000Z,101042
2019-05-30T13:53:19.000Z,101044
2019-05-30T13:55:19.000Z,101042
2019-05-30T13:57:20.000Z,101047
2019-05-30T13:59:20.000Z,101048
2019-05-30T14:01:11.000Z,101042
2019-05-30T14:03:20.000Z,101052
2019-05-30T14:05:05.000Z,101050
2019-05-30T14:07:20.000Z,101054
2019-05-30T14:09:19.000Z,101057
2019-05-30T14:11:34.000Z,101061
2019-05-30T14:12:34.000Z,101066
2019-05-30T14:14:34.000Z,101063
2019-05-30T14:16:34.000Z,101069
2019-05-30T14:17:34.000Z,101067
2019-05-30T14:19:05.000Z,101069
2019-05-30T14:20:34.000Z,101068
2019-05-30T14:22:19.000Z,101071
2019-05-30T14:24:04.000Z,101065
2019-05-30T14:26:19.000Z,101075
2019-05-30T14:28:05.000Z,101071
2019-05-30T14:30:34.000Z,101063
2019-05-30T14:32:20.000Z,101065
2019-05-30T14:34:20.000Z,101061
2019-05-30T14:36:10.000Z,101056
2019-05-30T14:37:34.000Z,101064
2019-05-30T14:38:34.000Z,101066
2019-05-30T14:40:19.000Z,101062
2019-05-30T14:41:34.000Z,101069
2019-05-30T14:42:34.000Z,101061
2019-05-30T14:44:19.000Z,101060
2019-05-30T14:46:20.000Z,101059
2019-05-30T14:48:20.000Z,101061
2019-05-30T14:49:34.000Z,101064
2019-05-30T14:50:34.000Z,101051
2019-05-30T14:52:34.000Z,101059
2019-05-30T14:54:04.000Z,101063
2019-05-30T14:55:19.000Z,101063
2019-05-30T14:56:34.000Z,101057
2019-05-30T14:58:19.000Z,101059
2019-05-30T14:59:34.000Z,101065
2019-05-30T15:00:34.000Z,101050
2019-05-30T15:02:19.000Z,101052
2019-05-30T15:04:19.000Z,101058
2019-05-30T15:06:08.000Z,101057
2019-05-30T15:08:04.000Z,101062
2019-05-30T15:09:17.000Z,101055
2019-05-30T15:11:04.000Z,101054
2019-05-30T15:12:04.000Z,101052
2019-05-30T15:13:20.000Z,101057
2019-05-30T15:15:04.000Z,101055
2019-05-30T15:16:34.000Z,101051
2019-05-30T15:18:19.000Z,101055
2019-05-30T15:20:06.000Z,101046
2019-05-30T15:22:04.000Z,101049
2019-05-30T15:24:20.000Z,101048
2019-05-30T15:26:20.000Z,101048
2019-05-30T15:28:20.000Z,101048
2019-05-30T15:30:05.000Z,101053
2019-05-30T15:32:21.000Z,101048
2019-05-30T15:34:04.000Z,101047
2019-05-30T15:35:34.000Z,101055
2019-05-30T15:36:34.000Z,101057
2019-05-30T15:38:19.000Z,101057
2019-05-30T15:39:19.000Z,101056
2019-05-30T15:41:19.000Z,101058
2019-05-30T15:43:34.000Z,101058
2019-05-30T15:44:34.000Z,101053
2019-05-30T15:46:34.000Z,101058
2019-05-30T15:48:19.000Z,101056
2019-05-30T15:49:34.000Z,101048
2019-05-30T15:51:34.000Z,101050
2019-05-30T15:53:34.000Z,101049
2019-05-30T15:55:19.000Z,101045
2019-05-30T15:57:34.000Z,101051
2019-05-30T15:59:19.000Z,101035
2019-05-30T16:00:35.000Z,101048
2019-05-30T16:02:20.000Z,101049
2019-05-30T16:04:20.000Z,101047
2019-05-30T16:06:19.000Z,101050
2019-05-30T16:07:20.000Z,101046
2019-05-30T16:09:20.000Z,101051
2019-05-30T16:11:20.000Z,101046
2019-05-30T16:13:20.000Z,101049
2019-05-30T16:15:20.000Z,101044
2019-05-30T16:17:35.000Z,101044
2019-05-30T16:19:05.000Z,101039
2019-05-30T16:20:35.000Z,101046
2019-05-30T16:22:20.000Z,101044
2019-05-30T16:24:35.000Z,101044
2019-05-30T16:26:35.000Z,101045
2019-05-30T16:28:35.000Z,101036
2019-05-30T16:30:05.000Z,101028
2019-05-30T16:31:35.000Z,101031
2019-05-30T16:33:19.000Z,101022
2019-05-30T16:34:35.000Z,101030
2019-05-30T16:35:35.000Z,101033
2019-05-30T16:37:35.000Z,101029
2019-05-30T16:39:19.000Z,101026
2019-05-30T16:41:20.000Z,101033
2019-05-30T16:43:20.000Z,101025
2019-05-30T16:44:20.000Z,101024
2019-05-30T16:45:20.000Z,101025
2019-05-30T16:47:20.000Z,101017
2019-05-30T16:48:20.000Z,101024
2019-05-30T16:50:20.000Z,101024
2019-05-30T16:51:20.000Z,101031
2019-05-30T16:53:20.000Z,101024
2019-05-30T16:55:20.000Z,101022
2019-05-30T16:57:20.000Z,101031
2019-05-30T16:59:20.000Z,101038
2019-05-30T17:01:35.000Z,101032
2019-05-30T17:03:04.000Z,101030
2019-05-30T17:04:20.000Z,101031
2019-05-30T17:06:19.000Z,101029
2019-05-30T17:07:20.000Z,101027
2019-05-30T17:09:20.000Z,101025
2019-05-30T17:11:20.000Z,101023
2019-05-30T17:12:20.000Z,101023
2019-05-30T17:14:35.000Z,101018
2019-05-30T17:15:35.000Z,101014
2019-05-30T17:17:35.000Z,101011
2019-05-30T17:19:20.000Z,101018
2019-05-30T17:21:20.000Z,101008
2019-05-30T17:23:20.000Z,101009
2019-05-30T17:25:20.000Z,101013
2019-05-30T17:27:35.000Z,101009
2019-05-30T17:29:19.000Z,101011
2019-05-30T17:30:20.000Z,101016
2019-05-30T17:32:35.000Z,101014
2019-05-30T17:34:35.000Z,101015
2019-05-30T17:36:35.000Z,101009
2019-05-30T17:38:20.000Z,101008
2019-05-30T17:40:20.000Z,101008
2019-05-30T17:42:20.000Z,101008
2019-05-30T17:44:20.000Z,101011
2019-05-30T17:45:20.000Z,101014
2019-05-30T17:47:20.000Z,101014
2019-05-30T17:49:20.000Z,101010
2019-05-30T17:50:20.000Z,101010
2019-05-30T17:52:20.000Z,101009
2019-05-30T17:54:35.000Z,101010
2019-05-30T17:56:35.000Z,101007
2019-05-30T17:58:05.000Z,101012
2019-05-30T18:00:20.000Z,101014
2019-05-30T18:02:20.000Z,101012
2019-05-30T18:04:19.000Z,101006
2019-05-30T18:05:20.000Z,101008
2019-05-30T18:07:20.000Z,101005
2019-05-30T18:09:20.000Z,101011
2019-05-30T18:11:20.000Z,101008
2019-05-30T18:13:20.000Z,101005
2019-05-30T18:15:20.000Z,101009
2019-05-30T18:17:20.000Z,101014
2019-05-30T18:19:20.000Z,101012
2019-05-30T18:21:20.000Z,101014
2019-05-30T18:23:20.000Z,101012
2019-05-30T18:25:20.000Z,101009
2019-05-30T18:27:20.000Z,101016
2019-05-30T18:29:20.000Z,101021
2019-05-30T18:30:35.000Z,101022
2019-05-30T18:31:35.000Z,101021
2019-05-30T18:33:35.000Z,101024
2019-05-30T18:34:35.000Z,101029
2019-05-30T18:35:35.000Z,101022
2019-05-30T18:37:35.000Z,101021
2019-05-30T18:39:35.000Z,101027
2019-05-30T18:40:35.000Z,101025
2019-05-30T18:42:20.000Z,101021
2019-05-30T18:43:20.000Z,101027
2019-05-30T18:44:35.000Z,101027
2019-05-30T18:46:35.000Z,101029
2019-05-30T18:48:20.000Z,101026
2019-05-30T18:49:35.000Z,101030
2019-05-30T18:51:35.000Z,101032
2019-05-30T18:53:20.000Z,101030
2019-05-30T18:54:35.000Z,101030
2019-05-30T18:56:35.000Z,101031
2019-05-30T18:57:35.000Z,101032
2019-05-30T18:59:35.000Z,101031
2019-05-30T19:01:35.000Z,101032
2019-05-30T19:02:35.000Z,101037
2019-05-30T19:04:05.000Z,101027
2019-05-30T19:06:35.000Z,101028
2019-05-30T19:07:35.000Z,101027
2019-05-30T19:08:35.000Z,101031
2019-05-30T19:10:20.000Z,101027
2019-05-30T19:11:20.000Z,101028
2019-05-30T19:13:20.000Z,101030
2019-05-30T19:14:35.000Z,101035
2019-05-30T19:16:19.000Z,101035
2019-05-30T19:17:35.000Z,101035
2019-05-30T19:19:35.000Z,101043
2019-05-30T19:21:35.000Z,101042
2019-05-30T19:23:35.000Z,101040
2019-05-30T19:24:35.000Z,101043
2019-05-30T19:26:35.000Z,101050
2019-05-30T19:28:35.000Z,101046
2019-05-30T19:30:35.000Z,101044
2019-05-30T19:32:35.000Z,101044
2019-05-30T19:34:35.000Z,101050
2019-05-30T19:36:35.000Z,101054
2019-05-30T19:38:04.000Z,101052
2019-05-30T19:39:35.000Z,101055
2019-05-30T19:41:35.000Z,101054
2019-05-30T19:43:35.000Z,101065
2019-05-30T19:45:35.000Z,101063
2019-05-30T19:47:35.000Z,101067
2019-05-30T19:49:35.000Z,101066
2019-05-30T19:51:20.000Z,101069
2019-05-30T19:53:35.000Z,101070
2019-05-30T19:54:35.000Z,101074
2019-05-30T19:56:35.000Z,101073
2019-05-30T19:58:35.000Z,101063
2019-05-30T20:00:35.000Z,101072
2019-05-30T20:02:35.000Z,101069
2019-05-30T20:04:35.000Z,101074
2019-05-30T20:06:19.000Z,101071
2019-05-30T20:07:35.000Z,101071
2019-05-30T20:09:35.000Z,101080
2019-05-30T20:10:35.000Z,101084
2019-05-30T20:11:35.000Z,101075
2019-05-30T20:13:35.000Z,101075
2019-05-30T20:14:35.000Z,101074
2019-05-30T20:16:35.000Z,101083
2019-05-30T20:18:19.000Z,101079
2019-05-30T20:19:34.000Z,101079
2019-05-30T20:21:34.000Z,101087
2019-05-30T20:23:19.000Z,101091
2019-05-30T20:24:34.000Z,101092
2019-05-30T20:26:34.000Z,101094
2019-05-30T20:28:34.000Z,101089
2019-05-30T20:30:34.000Z,101085
2019-05-30T20:32:19.000Z,101091
2019-05-30T20:33:34.000Z,101087
2019-05-30T20:35:34.000Z,101090
2019-05-30T20:37:19.000Z,101091
2019-05-30T20:38:34.000Z,101088
2019-05-30T20:40:34.000Z,101094
2019-05-30T20:42:04.000Z,101099
2019-05-30T20:43:34.000Z,101101
2019-05-30T20:45:07.000Z,101099
2019-05-30T20:46:19.000Z,101096
2019-05-30T20:47:34.000Z,101099
2019-05-30T20:49:19.000Z,101102
2019-05-30T20:50:34.000Z,101095
2019-05-30T20:52:34.000Z,101101
2019-05-30T20:54:19.000Z,101102
2019-05-30T20:55:34.000Z,101105
2019-05-30T20:57:34.000Z,101110
2019-05-30T20:59:34.000Z,101105
2019-05-30T21:01:34.000Z,101111
2019-05-30T21:03:19.000Z,101108
2019-05-30T21:04:34.000Z,101113
2019-05-30T21:06:34.000Z,101115
2019-05-30T21:08:04.000Z,101124
2019-05-30T21:51:18.000Z,101138
2019-05-30T21:53:04.000Z,101136
2019-05-30T21:55:04.000Z,101140
2019-05-30T21:56:49.000Z,101133
2019-05-30T21:58:04.000Z,101134
2019-05-30T21:59:49.000Z,101137
2019-05-30T22:00:49.000Z,101132
2019-05-30T22:01:49.000Z,101139
2019-05-30T22:03:49.000Z,101141
2019-05-30T22:04:49.000Z,101138
2019-05-30T22:05:49.000Z,101138
2019-05-30T22:07:49.000Z,101136
2019-05-30T22:09:49.000Z,101133
2019-05-30T22:12:04.000Z,101138
2019-05-30T22:13:04.000Z,101130
2019-05-30T22:15:04.000Z,101136
2019-05-30T22:16:49.000Z,101137
2019-05-30T22:18:04.000Z,101140
2019-05-30T22:20:04.000Z,101139
2019-05-30T22:21:49.000Z,101138
2019-05-30T22:23:04.000Z,101138
2019-05-30T22:24:49.000Z,101142
2019-05-30T22:25:49.000Z,101137
2019-05-30T22:26:50.000Z,101128
2019-05-30T22:28:50.000Z,101137
2019-05-30T22:30:50.000Z,101142
2019-05-30T22:32:50.000Z,101134
2019-05-30T22:34:50.000Z,101131
2019-05-30T22:36:49.000Z,101129
2019-05-30T22:37:49.000Z,101129